createdAt,value
2022-09-07T00:03:29.833Z,0
2022-09-07T00:09:40.405Z,0
2022-09-07T00:15:51.031Z,0
2022-09-07T00:21:24.574Z,0
2022-09-07T00:26:58.131Z,0
2022-09-07T00:32:31.694Z,0
2022-09-07T00:37:57.044Z,0
2022-09-07T00:43:30.605Z,0
2022-09-07T00:49:04.171Z,0
2022-09-07T00:54:37.776Z,0
2022-09-07T01:00:11.284Z,0
2022-09-07T01:05:44.853Z,0
2022-09-07T01:11:18.382Z,0
2022-09-07T01:16:51.959Z,0
2022-09-07T01:22:25.513Z,0
2022-09-07T01:27:59.066Z,0
2022-09-07T01:33:32.620Z,0
2022-09-07T01:38:57.991Z,0
2022-09-07T01:44:31.558Z,0
2022-09-07T01:49:36.258Z,0
2022-09-07T01:55:09.801Z,0
2022-09-07T02:00:43.355Z,0
2022-09-07T02:06:16.936Z,0
2022-09-07T02:11:50.474Z,0
2022-09-07T02:17:24.149Z,0
2022-09-07T02:22:57.576Z,0
2022-09-07T02:28:31.243Z,0
2022-09-07T02:34:04.687Z,0
2022-09-07T02:39:30.115Z,0
2022-09-07T02:45:03.631Z,0
2022-09-07T02:50:37.192Z,0
2022-09-07T02:56:10.721Z,0
2022-09-07T03:01:44.350Z,0
2022-09-07T03:07:17.846Z,0
2022-09-07T03:12:51.399Z,0
2022-09-07T03:18:24.991Z,0
2022-09-07T03:23:58.532Z,0
2022-09-07T03:29:32.091Z,0
2022-09-07T03:35:05.661Z,0
2022-09-07T03:40:31.019Z,0
2022-09-07T03:46:04.673Z,0
2022-09-07T03:51:38.117Z,0
2022-09-07T03:57:11.687Z,0
2022-09-07T04:02:45.298Z,0
2022-09-07T04:08:18.777Z,0
2022-09-07T04:13:52.355Z,0
2022-09-07T04:18:57.049Z,0
2022-09-07T04:24:30.621Z,0
2022-09-07T04:30:04.171Z,0
2022-09-07T04:35:37.733Z,0
2022-09-07T04:41:03.086Z,0
2022-09-07T04:46:36.658Z,0
2022-09-07T04:52:10.212Z,0
2022-09-07T04:57:43.742Z,0
2022-09-07T05:03:17.312Z,0
2022-09-07T05:08:50.877Z,0
2022-09-07T05:14:24.430Z,0
2022-09-07T05:19:58.008Z,0
2022-09-07T05:25:31.559Z,0
2022-09-07T05:31:20.721Z,0
2022-09-07T05:36:38.685Z,0
2022-09-07T05:42:08.140Z,0
2022-09-07T05:47:41.668Z,0
2022-09-07T05:53:15.226Z,0
2022-09-07T05:58:48.798Z,0
2022-09-07T06:04:22.362Z,0
2022-09-07T06:15:29.457Z,0
2022-09-07T06:21:03.020Z,0.3
2022-09-07T06:26:36.565Z,2.5
2022-09-07T06:37:43.725Z,2.4
2022-09-07T06:43:09.079Z,3.7
2022-09-07T06:48:13.769Z,5
2022-09-07T06:53:47.902Z,7
2022-09-07T06:59:20.853Z,7.9
2022-09-07T07:04:54.427Z,8.4
2022-09-07T07:10:28.095Z,8.4
2022-09-07T07:16:01.666Z,8.4
2022-09-07T07:21:55.330Z,8.1
2022-09-07T07:27:08.671Z,8.6
2022-09-07T07:32:42.222Z,9.6
2022-09-07T07:43:41.147Z,9.8
2022-09-07T07:49:14.718Z,9
2022-09-07T07:54:48.331Z,11.1
2022-09-07T08:00:37.405Z,11.1
2022-09-07T08:05:55.379Z,11.9
2022-09-07T08:11:28.961Z,13.3
2022-09-07T08:17:02.504Z,13.7
2022-09-07T08:22:36.099Z,14.5
2022-09-07T08:28:46.745Z,14.9
2022-09-07T08:34:20.250Z,15.5
2022-09-07T08:39:53.935Z,16.6
2022-09-07T08:45:11.013Z,16.6
2022-09-07T08:50:44.533Z,15.2
2022-09-07T08:56:18.080Z,15.2
2022-09-07T09:02:35.068Z,15.2
2022-09-07T09:08:39.323Z,14.1
2022-09-07T09:14:12.902Z,15.5
2022-09-07T09:20:02.874Z,15.5
2022-09-07T09:26:13.454Z,15.8
2022-09-07T09:31:47.032Z,15.8
2022-09-07T09:37:57.668Z,15.2
2022-09-07T09:43:14.818Z,15.2
2022-09-07T09:48:48.388Z,14.1
2022-09-07T09:54:21.958Z,15.6
2022-09-07T09:59:57.592Z,15.7
2022-09-07T10:05:29.091Z,13.7
2022-09-07T10:11:02.618Z,14.4
2022-09-07T10:16:36.190Z,13.9
2022-09-07T10:22:09.723Z,14
2022-09-07T10:27:43.334Z,13.7
2022-09-07T10:33:16.845Z,13.1
2022-09-07T10:38:50.435Z,14.4
2022-09-07T10:44:15.823Z,13.8
2022-09-07T10:55:22.891Z,12.1
2022-09-07T11:00:56.466Z,12.6
2022-09-07T11:06:30.019Z,12.3
2022-09-07T11:12:04.450Z,12.8
2022-09-07T11:17:37.183Z,11.9
2022-09-07T11:23:11.426Z,12.5
2022-09-07T11:28:44.662Z,12.3
2022-09-07T11:34:25.190Z,11.8
2022-09-07T11:39:51.448Z,11.5
2022-09-07T11:45:16.741Z,11.8
2022-09-07T11:50:21.447Z,11.6
2022-09-07T11:55:55.223Z,11.7
2022-09-07T12:02:05.678Z,11.7
2022-09-07T12:08:16.301Z,11.5
2022-09-07T12:13:49.792Z,11.2
2022-09-07T12:19:23.332Z,11.9
2022-09-07T12:24:56.944Z,11.9
2022-09-07T12:30:30.488Z,11.9
2022-09-07T12:36:04.032Z,12.6
2022-09-07T12:48:25.270Z,12.4
2022-09-07T12:55:27.570Z,12.6
2022-09-07T13:00:42.477Z,12.3
2022-09-07T13:06:16.317Z,11.8
2022-09-07T13:11:49.508Z,11.3
2022-09-07T13:17:23.126Z,11.6
2022-09-07T13:22:56.630Z,11.7
2022-09-07T13:29:07.295Z,12
2022-09-07T13:34:40.879Z,11.7
2022-09-07T13:40:14.460Z,11.7
2022-09-07T13:45:48.012Z,11.7
2022-09-07T13:51:21.532Z,12
2022-09-07T13:56:46.883Z,11.8
2022-09-07T14:02:20.442Z,11.9
2022-09-07T14:07:54.016Z,11.5
2022-09-07T14:13:27.704Z,11.6
2022-09-07T14:18:32.244Z,12
2022-09-07T14:24:05.821Z,11
2022-09-07T14:29:39.386Z,11.6
2022-09-07T14:35:12.928Z,11.2
2022-09-07T14:41:23.557Z,10.9
2022-09-07T14:47:34.166Z,11.5
2022-09-07T14:58:41.439Z,11.3
2022-09-07T15:04:06.711Z,11.2
2022-09-07T15:09:40.217Z,12.1
2022-09-07T15:15:13.791Z,11.3
2022-09-07T15:20:47.340Z,12.2
2022-09-07T15:32:03.303Z,12.9
2022-09-07T15:38:06.079Z,12.5
2022-09-07T15:43:39.039Z,12.8
2022-09-07T15:49:12.521Z,12.6
2022-09-07T15:54:45.822Z,13.1
2022-09-07T16:00:19.310Z,13.2
2022-09-07T16:05:44.678Z,13.4
2022-09-07T16:11:18.825Z,13
2022-09-07T16:27:58.915Z,12.4
2022-09-07T16:33:36.853Z,12
2022-09-07T16:39:06.048Z,12.1
2022-09-07T16:44:39.591Z,12.7
2022-09-07T16:49:44.302Z,12.8
2022-09-07T16:55:17.861Z,12.7
2022-09-07T17:00:51.446Z,12.3
2022-09-07T17:06:16.777Z,11.6
2022-09-07T17:11:50.363Z,11.8
2022-09-07T17:17:23.869Z,11.1
2022-09-07T17:22:57.438Z,10.7
2022-09-07T17:28:32.227Z,10.8
2022-09-07T17:34:04.555Z,10.2
2022-09-07T17:39:38.181Z,10
2022-09-07T17:45:11.804Z,9.6
2022-09-07T17:50:45.239Z,9.6
2022-09-07T17:56:55.876Z,9.2
2022-09-07T18:02:29.448Z,8.9
2022-09-07T18:07:54.794Z,8.9
2022-09-07T18:13:35.818Z,8.8
2022-09-07T18:19:01.934Z,8.6
2022-09-07T18:24:36.864Z,8.7
2022-09-07T18:30:09.019Z,8.3
2022-09-07T18:35:42.606Z,8.3
2022-09-07T18:41:16.150Z,8.3
2022-09-07T18:46:49.701Z,8.2
2022-09-07T18:57:56.809Z,8.3
2022-09-07T19:03:30.505Z,8.3
2022-09-07T19:08:55.763Z,8.1
2022-09-07T19:14:29.292Z,8
2022-09-07T19:19:33.977Z,7.9
2022-09-07T19:25:07.588Z,7.7
2022-09-07T19:30:41.121Z,7.5
2022-09-07T19:36:14.656Z,7.3
2022-09-07T19:41:48.265Z,7.4
2022-09-07T19:47:21.820Z,7
2022-09-07T19:52:55.340Z,6.9
2022-09-07T19:59:05.993Z,6.7
2022-09-07T20:04:39.556Z,6.5
2022-09-07T20:10:04.889Z,6.3
2022-09-07T20:15:38.481Z,6.2
2022-09-07T20:21:12.021Z,5.8
2022-09-07T20:26:45.569Z,5.8
2022-09-07T20:32:19.149Z,5.7
2022-09-07T20:37:52.692Z,5.5
2022-09-07T20:44:03.307Z,5.4
2022-09-07T20:49:36.908Z,5.3
2022-09-07T20:55:10.437Z,5.1
2022-09-07T21:00:44.076Z,5
2022-09-07T21:06:46.432Z,5.1
2022-09-07T21:12:19.971Z,4.8
2022-09-07T21:17:53.529Z,4.6
2022-09-07T21:23:27.203Z,4.3
2022-09-07T21:29:00.713Z,4
2022-09-07T21:34:34.215Z,3.7
2022-09-07T21:40:07.904Z,3.9
2022-09-07T21:45:41.321Z,3.8
2022-09-07T21:50:46.025Z,3.9
2022-09-07T21:56:19.587Z,4
2022-09-07T22:01:53.188Z,3.8
2022-09-07T22:07:18.524Z,3.7
2022-09-07T22:12:52.102Z,3.5
2022-09-07T22:18:25.631Z,3
2022-09-07T22:23:59.182Z,2.8
2022-09-07T22:29:32.804Z,2.6
2022-09-07T22:35:06.294Z,2.3
2022-09-07T22:40:39.844Z,2.4
2022-09-07T22:46:50.615Z,2
2022-09-07T22:52:24.048Z,1.9
2022-09-07T22:57:57.590Z,2
2022-09-07T23:03:31.313Z,2.4
2022-09-07T23:09:33.571Z,2.2
2022-09-07T23:15:07.119Z,2.1
2022-09-07T23:20:40.709Z,2.1
2022-09-07T23:26:14.279Z,2.3
2022-09-07T23:31:47.868Z,2.1
2022-09-07T23:37:21.386Z,1.9
2022-09-07T23:42:54.924Z,2
2022-09-07T23:48:28.515Z,1.7
2022-09-07T23:54:02.085Z,1.8
2022-09-07T23:59:35.597Z,1.7
